Yang Li Hu — BOGE — position and weather

sailwx.info

Track history (hours):
 
Tides and Currents Weather Stations Pressure Air Temp Water Temp Dewpoint Dewpoint Depression Visibility Wind Speed Wind Dir Waves Ship Positions

Yang Li Hu

Last reported at 2015-Jan-30 22:31 UTC. Time now 2015-Jan-30 23:22 UTC.
Position S 12°57' W 038°34'.

Length 244 m; draft 11.9 m.

Type: Tanker. MMSI: 413975000.

Date/timePositionNaut miles runAvg speedWind from/ knotsBaromVisibWave heightAir tempDewpointWater temp
2015-Jan-30 22:31S 12°57' W 038°34'0 0.1
2015-Jan-30 21:31S 12°57' W 038°34'0 0.0
2015-Jan-30 20:31S 12°57' W 038°34'0 0.1
2015-Jan-30 19:31S 12°57' W 038°34'0 0.0
2015-Jan-30 18:31S 12°57' W 038°34'0 0.1
2015-Jan-30 17:31S 12°57' W 038°34'0 0.3
2015-Jan-30 16:31S 12°56' W 038°34'0 0.0
2015-Jan-30 15:31S 12°56' W 038°34'0 0.1
2015-Jan-30 14:31S 12°56' W 038°34'0 0.0
2015-Jan-30 13:31S 12°56' W 038°34'0 0.1
2015-Jan-30 12:34S 12°56' W 038°34'1 0.6
2015-Jan-30 11:33S 12°56' W 038°34'9 9.3
2015-Jan-30 10:33S 12°47' W 038°35'3 0.7
2015-Jan-30 06:29S 12°45' W 038°38'0 0.0
2015-Jan-30 05:29S 12°45' W 038°38'0 0.0
2015-Jan-30 04:29S 12°45' W 038°38'0 0.0
2015-Jan-30 03:29S 12°45' W 038°38'0 0.0
2015-Jan-30 01:29S 12°45' W 038°38'0 0.0
2015-Jan-30 00:11S 12°45' W 038°38'0 0.0
2015-Jan-29 21:29S 12°45' W 038°38'0 0.0
2015-Jan-29 20:29S 12°45' W 038°38'0 0.0
2015-Jan-29 19:23S 12°45' W 038°38'0 0.0
2015-Jan-29 17:17S 12°45' W 038°38'0 0.0
2015-Jan-29 16:29S 12°45' W 038°38'0 0.0
2015-Jan-29 15:29S 12°45' W 038°38'0 0.0
2015-Jan-29 14:17S 12°45' W 038°38'0 0.0
2015-Jan-29 13:29S 12°45' W 038°38'0 0.0
2015-Jan-29 12:29S 12°45' W 038°38'0 0.0
2015-Jan-29 11:23S 12°45' W 038°38'0 0.0
2015-Jan-29 09:11S 12°45' W 038°38'0 0.0
2015-Jan-29 08:29S 12°45' W 038°38'0 0.0
2015-Jan-29 07:17S 12°45' W 038°38'0 0.0
2015-Jan-29 06:23S 12°45' W 038°38'0 0.0
2015-Jan-29 04:17S 12°45' W 038°38'0 0.0
2015-Jan-29 02:29S 12°45' W 038°38'0 0.4
2015-Jan-29 01:34S 12°45' W 038°38'6 6.2
2015-Jan-29 00:33S 12°50' W 038°34'8 7.9
2015-Jan-28 23:33S 12°58' W 038°34'0 0.1
2015-Jan-28 22:33S 12°58' W 038°34'0 0.1
2015-Jan-28 21:33S 12°58' W 038°34'0 0.1
2015-Jan-28 20:33S 12°58' W 038°34'0 0.1
2015-Jan-28 19:33S 12°58' W 038°34'0 0.0
2015-Jan-28 18:33S 12°58' W 038°34'0 0.0
2015-Jan-28 17:33S 12°58' W 038°34'0 0.1
2015-Jan-28 16:33S 12°58' W 038°34'0 0.1
2015-Jan-28 15:33S 12°58' W 038°34'0 0.2
2015-Jan-28 14:33S 12°58' W 038°34'1 0.5
2015-Jan-28 13:34S 12°58' W 038°34'8 8.0
2015-Jan-28 12:33S 13°06' W 038°33'  
Track history (hours):
 
Tides and Currents Weather Stations Pressure Air Temp Water Temp Dewpoint Dewpoint Depression Visibility Wind Speed Wind Dir Waves Ship Positions

Yang Li Hu

Last reported at 2015-Jan-30 22:31 UTC. Time now 2015-Jan-30 23:22 UTC.
Position S 12°57' W 038°34'.

Length 244 m; draft 11.9 m.

Type: Tanker. MMSI: 413975000.

Date/timePositionNaut miles runAvg speedWind from/ knotsBaromVisibWave heightAir tempDewpointWater temp
2015-Jan-30 22:31S 12°57' W 038°34'0 0.1
2015-Jan-30 21:31S 12°57' W 038°34'0 0.0
2015-Jan-30 20:31S 12°57' W 038°34'0 0.1
2015-Jan-30 19:31S 12°57' W 038°34'0 0.0
2015-Jan-30 18:31S 12°57' W 038°34'0 0.1
2015-Jan-30 17:31S 12°57' W 038°34'0 0.3
2015-Jan-30 16:31S 12°56' W 038°34'0 0.0
2015-Jan-30 15:31S 12°56' W 038°34'0 0.1
2015-Jan-30 14:31S 12°56' W 038°34'0 0.0
2015-Jan-30 13:31S 12°56' W 038°34'0 0.1
2015-Jan-30 12:34S 12°56' W 038°34'1 0.6
2015-Jan-30 11:33S 12°56' W 038°34'9 9.3
2015-Jan-30 10:33S 12°47' W 038°35'3 0.7
2015-Jan-30 06:29S 12°45' W 038°38'0 0.0
2015-Jan-30 05:29S 12°45' W 038°38'0 0.0
2015-Jan-30 04:29S 12°45' W 038°38'0 0.0
2015-Jan-30 03:29S 12°45' W 038°38'0 0.0
2015-Jan-30 01:29S 12°45' W 038°38'0 0.0
2015-Jan-30 00:11S 12°45' W 038°38'0 0.0
2015-Jan-29 21:29S 12°45' W 038°38'0 0.0
2015-Jan-29 20:29S 12°45' W 038°38'0 0.0
2015-Jan-29 19:23S 12°45' W 038°38'0 0.0
2015-Jan-29 17:17S 12°45' W 038°38'0 0.0
2015-Jan-29 16:29S 12°45' W 038°38'0 0.0
2015-Jan-29 15:29S 12°45' W 038°38'0 0.0
2015-Jan-29 14:17S 12°45' W 038°38'0 0.0
2015-Jan-29 13:29S 12°45' W 038°38'0 0.0
2015-Jan-29 12:29S 12°45' W 038°38'0 0.0
2015-Jan-29 11:23S 12°45' W 038°38'0 0.0
2015-Jan-29 09:11S 12°45' W 038°38'0 0.0
2015-Jan-29 08:29S 12°45' W 038°38'0 0.0
2015-Jan-29 07:17S 12°45' W 038°38'0 0.0
2015-Jan-29 06:23S 12°45' W 038°38'0 0.0
2015-Jan-29 04:17S 12°45' W 038°38'0 0.0
2015-Jan-29 02:29S 12°45' W 038°38'0 0.4
2015-Jan-29 01:34S 12°45' W 038°38'6 6.2
2015-Jan-29 00:33S 12°50' W 038°34'8 7.9
2015-Jan-28 23:33S 12°58' W 038°34'0 0.1
2015-Jan-28 22:33S 12°58' W 038°34'0 0.1
2015-Jan-28 21:33S 12°58' W 038°34'0 0.1
2015-Jan-28 20:33S 12°58' W 038°34'0 0.1
2015-Jan-28 19:33S 12°58' W 038°34'0 0.0
2015-Jan-28 18:33S 12°58' W 038°34'0 0.0
2015-Jan-28 17:33S 12°58' W 038°34'0 0.1
2015-Jan-28 16:33S 12°58' W 038°34'0 0.1
2015-Jan-28 15:33S 12°58' W 038°34'0 0.2
2015-Jan-28 14:33S 12°58' W 038°34'1 0.5
2015-Jan-28 13:34S 12°58' W 038°34'8 8.0
2015-Jan-28 12:33S 13°06' W 038°33'  

Dump ship's entire track history